Waldo, Ohio
Current Conditions -  °F | °C
As of 6:53 PM on Monday 20 Oct 2014 (Local Time) from KMNN Reporting Station
Overcast Overcast  
Wind Chill: 53°   Ceiling: 1900
Heat Index: 53°   Visibility: 8mi
Dew Point: 50°   Wind: 8mph
Humidity: 89%   Direction: 200°SSW
Pressure: 29.85"   Gusts: NA
Location:  40.46°N, 83.08°W
Report Text: KMNN 202253Z AUTO 20007KT 8SM BKN019 OVC024 12/10 A2985 RMK AO2 SLP112 T01170100 TSNO
Loading
Personal Weather Stations






























Interactive Weather Map
Tropical Storm Tracking
New forecast layout! Learn more

10-Day Weather Forecast

Advertisements
Track Severe Weather on mobile